createdAt,value
2022-10-09T00:01:41.959Z,2.77
2022-10-09T00:04:09.241Z,3.07
2022-10-09T00:06:36.414Z,2.80
2022-10-09T00:09:04.497Z,3.10
2022-10-09T00:11:32.657Z,3.37
2022-10-09T00:14:00.055Z,3.57
2022-10-09T00:16:28.943Z,3.27
2022-10-09T00:18:56.273Z,3.53
2022-10-09T00:21:24.743Z,3.87
2022-10-09T00:23:52.606Z,3.53
2022-10-09T00:26:19.831Z,3.37
2022-10-09T00:28:47.233Z,3.10
2022-10-09T00:31:14.589Z,2.80
2022-10-09T00:33:43.349Z,3.37
2022-10-09T00:36:11.594Z,3.20
2022-10-09T00:38:38.942Z,3.10
2022-10-09T00:41:06.648Z,2.60
2022-10-09T00:43:41.547Z,2.87
2022-10-09T00:46:15.428Z,2.97
2022-10-09T00:48:44.125Z,2.97
2022-10-09T00:51:11.339Z,3.00
2022-10-09T00:53:38.670Z,3.20
2022-10-09T00:56:06.046Z,3.30
2022-10-09T00:58:33.265Z,3.00
2022-10-09T01:01:00.475Z,3.03
2022-10-09T01:03:27.738Z,3.03
2022-10-09T01:06:01.239Z,3.17
2022-10-09T01:08:30.859Z,2.93
2022-10-09T01:11:00.442Z,3.40
2022-10-09T01:13:29.050Z,3.60
2022-10-09T01:15:59.556Z,3.43
2022-10-09T01:18:30.194Z,3.27
2022-10-09T01:21:01.134Z,3.17
2022-10-09T01:23:58.234Z,4.20
2022-10-09T01:26:35.501Z,4.57
2022-10-09T01:29:06.397Z,4.07
2022-10-09T01:34:23.903Z,2.90
2022-10-09T01:36:52.376Z,3.00
2022-10-09T01:39:21.895Z,3.07
2022-10-09T01:41:49.385Z,3.50
2022-10-09T01:44:18.638Z,3.20
2022-10-09T01:46:46.187Z,3.13
2022-10-09T01:49:17.703Z,3.03
2022-10-09T01:51:49.569Z,2.77
2022-10-09T01:54:19.386Z,3.10
2022-10-09T01:56:48.678Z,3.00
2022-10-09T01:59:17.789Z,2.97
2022-10-09T02:01:46.888Z,2.97
2022-10-09T02:04:15.439Z,3.00
2022-10-09T02:06:43.456Z,3.53
2022-10-09T02:09:12.158Z,2.60
2022-10-09T02:11:40.199Z,2.57
2022-10-09T02:14:07.547Z,2.80
2022-10-09T02:16:37.641Z,2.80
2022-10-09T02:19:09.135Z,3.17
2022-10-09T02:21:39.444Z,3.13
2022-10-09T02:24:08.707Z,2.97
2022-10-09T02:26:36.038Z,2.57
2022-10-09T02:29:03.349Z,2.90
2022-10-09T02:31:32.746Z,2.77
2022-10-09T02:34:01.133Z,3.00
2022-10-09T02:36:30.353Z,2.97
2022-10-09T02:38:58.061Z,2.67
2022-10-09T02:41:25.615Z,2.70
2022-10-09T02:43:52.924Z,3.43
2022-10-09T02:46:20.561Z,2.57
2022-10-09T02:48:47.765Z,3.13
2022-10-09T02:51:14.961Z,2.90
2022-10-09T02:53:43.576Z,2.87
2022-10-09T02:56:10.747Z,2.67
2022-10-09T02:58:38.003Z,2.43
2022-10-09T03:01:05.577Z,3.07
2022-10-09T03:03:33.073Z,2.63
2022-10-09T03:06:00.930Z,2.37
2022-10-09T03:08:28.139Z,2.67
2022-10-09T03:10:56.671Z,2.60
2022-10-09T03:13:23.916Z,2.87
2022-10-09T03:15:51.180Z,3.13
2022-10-09T03:18:18.679Z,3.17
2022-10-09T03:20:46.072Z,2.90
2022-10-09T03:23:13.287Z,3.00
2022-10-09T03:25:40.486Z,2.77
2022-10-09T03:28:09.077Z,2.57
2022-10-09T03:30:36.327Z,2.63
2022-10-09T03:33:03.518Z,2.67
2022-10-09T03:35:30.705Z,2.77
2022-10-09T03:37:57.999Z,3.00
2022-10-09T03:40:25.222Z,2.63
2022-10-09T03:42:52.710Z,3.17
2022-10-09T03:45:21.235Z,3.10
2022-10-09T03:47:48.463Z,2.70
2022-10-09T03:50:15.650Z,2.47
2022-10-09T03:52:42.902Z,3.57
2022-10-09T03:55:10.085Z,2.23
2022-10-09T03:57:37.423Z,2.50
2022-10-09T04:00:04.898Z,2.57
2022-10-09T04:02:33.913Z,2.60
2022-10-09T04:05:01.163Z,2.40
2022-10-09T04:07:28.391Z,2.87
2022-10-09T04:09:55.577Z,2.70
2022-10-09T04:12:23.066Z,2.83
2022-10-09T04:14:50.252Z,3.00
2022-10-09T04:17:17.487Z,3.00
2022-10-09T04:19:46.045Z,2.70
2022-10-09T04:22:13.313Z,2.90
2022-10-09T04:24:40.512Z,2.63
2022-10-09T04:27:07.787Z,2.80
2022-10-09T04:29:35.138Z,3.10
2022-10-09T04:32:02.473Z,3.20
2022-10-09T04:34:29.670Z,2.20
2022-10-09T04:36:58.254Z,2.30
2022-10-09T04:39:25.479Z,3.33
2022-10-09T04:41:52.825Z,2.57
2022-10-09T04:44:20.118Z,2.93
2022-10-09T04:46:47.379Z,2.77
2022-10-09T04:49:15.127Z,3.13
2022-10-09T04:51:42.474Z,2.80
2022-10-09T04:54:11.521Z,3.63
2022-10-09T04:56:39.151Z,2.93
2022-10-09T04:59:06.381Z,3.73
2022-10-09T05:01:38.069Z,3.50
2022-10-09T05:04:05.823Z,3.40
2022-10-09T05:06:33.103Z,3.07
2022-10-09T05:09:00.258Z,3.00
2022-10-09T05:11:28.914Z,2.87
2022-10-09T05:13:56.932Z,4.13
2022-10-09T05:16:25.158Z,3.30
2022-10-09T05:18:53.562Z,3.27
2022-10-09T05:21:20.801Z,3.97
2022-10-09T05:23:48.661Z,3.33
2022-10-09T05:26:17.094Z,3.37
2022-10-09T05:28:46.580Z,3.07
2022-10-09T05:31:17.946Z,3.83
2022-10-09T05:33:45.146Z,3.30
2022-10-09T05:36:12.396Z,3.40
2022-10-09T05:38:39.711Z,3.20
2022-10-09T05:41:08.078Z,3.77
2022-10-09T05:43:35.921Z,3.70
2022-10-09T05:46:09.444Z,3.80
2022-10-09T05:48:37.181Z,3.10
2022-10-09T05:51:11.770Z,3.70
2022-10-09T05:53:39.414Z,3.37
2022-10-09T05:56:10.422Z,3.33
2022-10-09T05:58:37.931Z,3.77
2022-10-09T06:01:08.114Z,3.47
2022-10-09T06:03:35.589Z,4.20
2022-10-09T06:06:02.794Z,3.60
2022-10-09T06:08:31.823Z,4.30
2022-10-09T06:10:59.081Z,2.47
2022-10-09T06:13:27.111Z,3.63
2022-10-09T06:15:54.690Z,3.63
2022-10-09T06:18:23.205Z,2.90
2022-10-09T06:20:54.232Z,3.37
2022-10-09T06:23:21.809Z,3.03
2022-10-09T06:25:52.474Z,3.43
2022-10-09T06:28:19.740Z,3.30
2022-10-09T06:30:47.054Z,3.97
2022-10-09T06:33:14.450Z,3.60
2022-10-09T06:35:43.123Z,3.00
2022-10-09T06:38:10.405Z,3.73
2022-10-09T06:40:38.023Z,3.17
2022-10-09T06:43:05.476Z,3.40
2022-10-09T06:45:36.609Z,3.33
2022-10-09T06:48:04.002Z,3.50
2022-10-09T06:50:31.261Z,3.27
2022-10-09T06:53:00.271Z,3.70
2022-10-09T06:55:28.834Z,3.60
2022-10-09T06:57:56.565Z,3.13
2022-10-09T07:00:32.703Z,3.20
2022-10-09T07:03:10.669Z,3.67
2022-10-09T07:05:37.942Z,3.53
2022-10-09T07:08:06.503Z,3.97
2022-10-09T07:10:33.718Z,3.83
2022-10-09T07:13:00.934Z,3.33
2022-10-09T07:15:28.160Z,3.40
2022-10-09T07:17:55.430Z,3.40
2022-10-09T07:20:22.630Z,3.80
2022-10-09T07:22:50.179Z,3.80
2022-10-09T07:25:19.059Z,2.87
2022-10-09T07:27:46.367Z,3.93
2022-10-09T07:30:13.726Z,3.60
2022-10-09T07:32:40.981Z,3.23
2022-10-09T07:35:08.459Z,3.27
2022-10-09T07:37:35.647Z,3.37
2022-10-09T07:40:02.863Z,3.63
2022-10-09T07:42:31.397Z,3.17
2022-10-09T07:44:58.655Z,3.10
2022-10-09T07:47:25.853Z,3.73
2022-10-09T07:49:53.077Z,2.97
2022-10-09T07:52:20.274Z,2.80
2022-10-09T07:54:47.464Z,3.20
2022-10-09T07:57:14.718Z,4.10
2022-10-09T07:59:43.261Z,3.20
2022-10-09T08:02:13.577Z,4.00
2022-10-09T08:04:41.174Z,4.17
2022-10-09T08:07:08.441Z,3.53
2022-10-09T08:09:35.682Z,3.20
2022-10-09T08:12:03.207Z,3.27
2022-10-09T08:14:30.890Z,3.53
2022-10-09T08:16:59.468Z,3.63
2022-10-09T08:19:26.698Z,3.20
2022-10-09T08:21:53.887Z,3.50
2022-10-09T08:24:21.127Z,2.93
2022-10-09T08:26:48.417Z,4.57
2022-10-09T08:29:15.656Z,3.63
2022-10-09T08:31:43.006Z,3.43
2022-10-09T08:34:11.560Z,4.00
2022-10-09T08:36:39.084Z,3.80
2022-10-09T08:39:06.299Z,3.07
2022-10-09T08:41:41.561Z,2.37
2022-10-09T08:44:11.807Z,3.80
2022-10-09T08:46:43.468Z,3.57
2022-10-09T08:49:16.835Z,4.00
2022-10-09T08:51:44.117Z,3.53
2022-10-09T08:54:13.875Z,3.80
2022-10-09T08:56:41.161Z,3.83
2022-10-09T08:59:10.419Z,3.93
2022-10-09T09:01:40.983Z,3.80
2022-10-09T09:04:14.849Z,3.67
2022-10-09T09:06:44.949Z,3.83
2022-10-09T09:09:15.618Z,3.90
2022-10-09T09:11:46.459Z,2.70
2022-10-09T09:14:20.380Z,2.93
2022-10-09T09:16:51.164Z,3.27
2022-10-09T09:19:31.222Z,3.13
2022-10-09T09:21:59.027Z,2.80
2022-10-09T09:24:32.599Z,3.10
2022-10-09T09:27:01.526Z,2.30
2022-10-09T09:29:32.645Z,2.77
2022-10-09T09:32:01.664Z,3.20
2022-10-09T09:34:37.662Z,2.90
2022-10-09T09:37:04.942Z,3.10
2022-10-09T09:42:21.305Z,3.03
2022-10-09T09:44:53.276Z,2.63
2022-10-09T09:47:22.366Z,3.30
2022-10-09T09:49:58.899Z,3.03
2022-10-09T09:52:35.221Z,2.70
2022-10-09T09:55:02.835Z,2.50
2022-10-09T09:57:32.310Z,2.30
2022-10-09T10:00:11.259Z,3.20
2022-10-09T10:02:38.438Z,2.20
2022-10-09T10:05:16.458Z,2.90
2022-10-09T10:07:43.947Z,2.90
2022-10-09T10:10:16.521Z,2.70
2022-10-09T10:12:47.313Z,2.80
2022-10-09T10:15:19.507Z,2.70
2022-10-09T10:17:47.595Z,2.30
2022-10-09T10:20:17.750Z,3.33
2022-10-09T10:22:47.877Z,2.90
2022-10-09T10:25:16.952Z,2.53
2022-10-09T10:27:44.840Z,2.60
2022-10-09T10:30:13.762Z,2.77
2022-10-09T10:32:44.508Z,2.43
2022-10-09T10:35:12.622Z,2.20
2022-10-09T10:37:43.407Z,2.50
2022-10-09T10:40:15.414Z,2.00
2022-10-09T10:42:44.761Z,2.30
2022-10-09T10:45:15.239Z,2.27
2022-10-09T10:47:45.899Z,2.50
2022-10-09T10:50:13.966Z,1.80
2022-10-09T10:52:53.668Z,2.07
2022-10-09T10:55:24.834Z,1.80
2022-10-09T10:57:56.176Z,2.30
2022-10-09T11:00:23.592Z,2.27
2022-10-09T11:03:18.462Z,2.10
2022-10-09T11:05:51.222Z,2.10
2022-10-09T11:08:33.735Z,1.80
2022-10-09T11:11:03.685Z,2.27
2022-10-09T11:13:32.605Z,2.00
2022-10-09T11:16:04.576Z,2.77
2022-10-09T11:18:41.908Z,2.17
2022-10-09T11:21:19.474Z,1.83
2022-10-09T11:24:05.915Z,2.17
2022-10-09T11:26:38.986Z,1.93
2022-10-09T11:29:09.532Z,1.73
2022-10-09T11:31:39.992Z,1.90
2022-10-09T11:34:11.280Z,1.93
2022-10-09T11:36:41.177Z,2.80
2022-10-09T11:39:13.834Z,2.50
2022-10-09T11:41:41.372Z,2.43
2022-10-09T11:44:15.609Z,2.30
2022-10-09T11:46:45.088Z,1.73
2022-10-09T11:49:18.858Z,2.03
2022-10-09T11:51:48.074Z,2.40
2022-10-09T11:54:17.800Z,2.00
2022-10-09T11:56:53.132Z,2.43
2022-10-09T11:59:22.375Z,2.03
2022-10-09T12:01:49.645Z,2.87
2022-10-09T12:04:32.455Z,2.20
2022-10-09T12:07:09.825Z,2.60
2022-10-09T12:09:39.573Z,3.17
2022-10-09T12:12:08.695Z,1.93
2022-10-09T12:14:37.238Z,2.20
2022-10-09T12:17:15.435Z,1.83
2022-10-09T12:19:43.123Z,2.60
2022-10-09T12:22:14.494Z,1.90
2022-10-09T12:24:44.936Z,2.07
2022-10-09T12:27:17.965Z,2.07
2022-10-09T12:29:45.917Z,2.17
2022-10-09T12:32:16.196Z,2.43
2022-10-09T12:34:46.020Z,2.57
2022-10-09T12:37:14.278Z,2.80
2022-10-09T12:39:42.850Z,2.77
2022-10-09T12:42:15.174Z,2.23
2022-10-09T12:44:42.717Z,2.17
2022-10-09T12:47:14.936Z,2.03
2022-10-09T12:49:42.171Z,2.10
2022-10-09T12:52:14.871Z,1.90
2022-10-09T12:54:44.313Z,1.57
2022-10-09T12:57:13.774Z,2.20
2022-10-09T12:59:41.230Z,1.87
2022-10-09T13:02:11.169Z,1.80
2022-10-09T13:04:38.913Z,1.73
2022-10-09T13:07:07.289Z,1.73
2022-10-09T13:09:35.797Z,2.00
2022-10-09T13:12:07.631Z,1.47
2022-10-09T13:14:36.410Z,1.93
2022-10-09T13:17:04.144Z,2.13
2022-10-09T13:19:32.699Z,2.10
2022-10-09T13:22:00.881Z,1.57
2022-10-09T13:24:28.101Z,1.90
2022-10-09T13:26:55.334Z,1.97
2022-10-09T13:29:23.939Z,1.90
2022-10-09T13:31:51.233Z,2.20
2022-10-09T13:34:18.419Z,1.97
2022-10-09T13:36:45.633Z,1.93
2022-10-09T13:39:14.172Z,1.63
2022-10-09T13:41:42.574Z,1.90
2022-10-09T13:44:09.807Z,2.20
2022-10-09T13:46:38.346Z,2.90
2022-10-09T13:49:05.852Z,2.00
2022-10-09T13:51:33.183Z,2.30
2022-10-09T13:54:00.733Z,2.13
2022-10-09T13:56:27.988Z,2.37
2022-10-09T13:58:55.259Z,2.00
2022-10-09T14:01:22.630Z,2.10
2022-10-09T14:03:51.305Z,2.30
2022-10-09T14:06:18.758Z,1.90
2022-10-09T14:08:45.954Z,2.13
2022-10-09T14:11:13.206Z,1.90
2022-10-09T14:13:40.419Z,2.43
2022-10-09T14:16:08.140Z,2.10
2022-10-09T14:18:35.678Z,2.20
2022-10-09T14:21:14.641Z,2.00
2022-10-09T14:23:42.174Z,2.03
2022-10-09T14:26:09.388Z,1.90
2022-10-09T14:28:36.631Z,2.17
2022-10-09T14:31:05.500Z,1.83
2022-10-09T14:33:32.736Z,1.93
2022-10-09T14:36:05.059Z,2.30
2022-10-09T14:38:36.136Z,1.93
2022-10-09T14:41:03.355Z,2.17
2022-10-09T14:43:30.546Z,2.23
2022-10-09T14:46:04.747Z,2.30
2022-10-09T14:48:32.001Z,2.03
2022-10-09T14:51:02.979Z,2.77
2022-10-09T14:53:30.355Z,2.13
2022-10-09T14:56:01.428Z,2.33
2022-10-09T14:58:29.249Z,2.30
2022-10-09T15:00:56.426Z,2.53
2022-10-09T15:03:25.317Z,3.00
2022-10-09T15:05:52.583Z,2.27
2022-10-09T15:08:23.994Z,2.23
2022-10-09T15:10:58.240Z,3.03
2022-10-09T15:13:27.481Z,2.43
2022-10-09T15:15:59.056Z,2.00
2022-10-09T15:18:26.418Z,2.20
2022-10-09T15:20:53.716Z,2.33
2022-10-09T15:23:23.510Z,2.67
2022-10-09T15:25:51.053Z,2.50
2022-10-09T15:28:18.703Z,2.40
2022-10-09T15:30:47.978Z,2.27
2022-10-09T15:33:15.234Z,2.00
2022-10-09T15:35:42.481Z,1.90
2022-10-09T15:38:12.927Z,2.00
2022-10-09T15:40:42.532Z,1.60
2022-10-09T15:43:09.755Z,2.60
2022-10-09T15:45:37.094Z,1.80
2022-10-09T15:48:05.698Z,2.10
2022-10-09T15:50:35.620Z,2.40
2022-10-09T15:53:02.919Z,2.73
2022-10-09T15:55:30.153Z,2.00
2022-10-09T15:57:57.367Z,1.87
2022-10-09T16:00:24.568Z,2.30
2022-10-09T16:02:52.236Z,1.90
2022-10-09T16:05:21.114Z,2.40
2022-10-09T16:07:48.330Z,3.10
2022-10-09T16:10:15.625Z,2.60
2022-10-09T16:12:42.859Z,2.03
2022-10-09T16:15:10.636Z,2.33
2022-10-09T16:17:37.817Z,2.10
2022-10-09T16:20:05.774Z,2.50
2022-10-09T16:22:34.375Z,2.33
2022-10-09T16:25:01.615Z,3.80
2022-10-09T16:27:28.863Z,2.13
2022-10-09T16:29:59.269Z,3.77
2022-10-09T16:32:26.482Z,3.63
2022-10-09T16:34:53.704Z,4.30
2022-10-09T16:37:20.944Z,4.17
2022-10-09T16:39:49.770Z,4.63
2022-10-09T16:42:17.007Z,3.37
2022-10-09T16:44:44.357Z,3.17
2022-10-09T16:47:11.837Z,3.17
2022-10-09T16:49:39.077Z,2.07
2022-10-09T16:52:06.252Z,2.93
2022-10-09T16:54:33.492Z,3.17
2022-10-09T16:57:02.056Z,4.60
2022-10-09T16:59:29.331Z,3.20
2022-10-09T17:01:56.539Z,4.17
2022-10-09T17:04:23.827Z,3.60
2022-10-09T17:06:51.049Z,2.60
2022-10-09T17:09:18.301Z,2.43
2022-10-09T17:11:46.009Z,2.33
2022-10-09T17:14:14.650Z,2.60
2022-10-09T17:16:42.686Z,3.67
2022-10-09T17:19:10.067Z,3.60
2022-10-09T17:21:38.500Z,3.40
2022-10-09T17:24:06.387Z,3.07
2022-10-09T17:26:33.951Z,3.37
2022-10-09T17:29:01.562Z,4.33
2022-10-09T17:31:30.376Z,3.77
2022-10-09T17:33:58.643Z,4.03
2022-10-09T17:36:27.105Z,3.10
2022-10-09T17:38:54.346Z,2.40
2022-10-09T17:41:22.996Z,2.30
2022-10-09T17:43:50.330Z,2.67
2022-10-09T17:46:17.643Z,3.20
2022-10-09T17:48:46.311Z,2.40
2022-10-09T17:51:14.898Z,2.30
2022-10-09T17:53:42.237Z,2.60
2022-10-09T17:56:09.430Z,2.70
2022-10-09T17:58:36.991Z,2.97
2022-10-09T18:01:06.995Z,2.30
2022-10-09T18:03:34.375Z,2.80
2022-10-09T18:06:05.315Z,2.73
2022-10-09T18:08:32.518Z,2.83
2022-10-09T18:11:00.482Z,3.13
2022-10-09T18:13:27.698Z,2.50
2022-10-09T18:15:55.444Z,2.47
2022-10-09T18:18:22.696Z,2.70
2022-10-09T18:20:49.900Z,2.60
2022-10-09T18:23:22.393Z,2.47
2022-10-09T18:25:50.030Z,2.83
2022-10-09T18:28:17.314Z,2.90
2022-10-09T18:30:45.152Z,2.93
2022-10-09T18:33:12.760Z,2.93
2022-10-09T18:35:40.396Z,2.70
2022-10-09T18:38:07.827Z,3.00
2022-10-09T18:40:44.495Z,2.90
2022-10-09T18:43:12.714Z,2.70
2022-10-09T18:45:44.265Z,2.87
2022-10-09T18:48:11.579Z,3.77
2022-10-09T18:50:38.851Z,2.87
2022-10-09T18:53:06.237Z,3.30
2022-10-09T18:55:33.555Z,2.60
2022-10-09T18:58:03.149Z,3.73
2022-10-09T19:00:30.984Z,2.70
2022-10-09T19:02:58.231Z,3.10
2022-10-09T19:05:25.439Z,3.10
2022-10-09T19:07:52.805Z,3.50
2022-10-09T19:10:20.219Z,2.63
2022-10-09T19:12:47.463Z,3.63
2022-10-09T19:15:16.190Z,3.10
2022-10-09T19:17:43.380Z,2.83
2022-10-09T19:20:13.198Z,3.10
2022-10-09T19:22:40.611Z,2.27
2022-10-09T19:25:07.864Z,3.30
2022-10-09T19:27:35.089Z,3.13
2022-10-09T19:30:02.886Z,3.33
2022-10-09T19:32:31.479Z,3.53
2022-10-09T19:34:58.686Z,3.17
2022-10-09T19:37:29.773Z,3.70
2022-10-09T19:39:57.391Z,2.80
2022-10-09T19:42:24.735Z,3.13
2022-10-09T19:44:51.934Z,3.03
2022-10-09T19:47:19.161Z,2.83
2022-10-09T19:49:47.939Z,3.53
2022-10-09T19:52:15.256Z,3.30
2022-10-09T19:54:42.439Z,2.93
2022-10-09T19:57:09.618Z,3.20
2022-10-09T19:59:36.846Z,3.73
2022-10-09T20:02:04.977Z,3.37
2022-10-09T20:04:32.255Z,2.80
2022-10-09T20:07:00.808Z,3.57
2022-10-09T20:09:28.010Z,3.53
2022-10-09T20:11:55.272Z,3.63
2022-10-09T20:14:22.471Z,3.30
2022-10-09T20:16:49.685Z,3.10
2022-10-09T20:19:16.940Z,3.33
2022-10-09T20:21:44.238Z,3.23
2022-10-09T20:24:12.813Z,3.33
2022-10-09T20:26:43.127Z,3.33
2022-10-09T20:29:10.623Z,3.27
2022-10-09T20:31:37.818Z,2.87
2022-10-09T20:34:05.087Z,2.57
2022-10-09T20:36:33.221Z,3.30
2022-10-09T20:39:01.929Z,3.27
2022-10-09T20:41:31.168Z,2.90
2022-10-09T20:43:59.430Z,3.33
2022-10-09T20:46:27.255Z,2.83
2022-10-09T20:48:54.765Z,3.80
2022-10-09T20:51:22.359Z,3.40
2022-10-09T20:53:51.851Z,3.07
2022-10-09T20:56:19.090Z,2.87
2022-10-09T20:58:47.886Z,3.23
2022-10-09T21:01:15.312Z,3.37
2022-10-09T21:03:42.614Z,3.03
2022-10-09T21:06:12.269Z,3.20
2022-10-09T21:08:39.465Z,3.43
2022-10-09T21:11:07.902Z,3.20
2022-10-09T21:13:35.198Z,3.10
2022-10-09T21:16:04.904Z,3.70
2022-10-09T21:18:32.204Z,3.53
2022-10-09T21:21:03.514Z,3.40
2022-10-09T21:23:30.759Z,2.80
2022-10-09T21:25:57.938Z,3.27
2022-10-09T21:28:25.369Z,2.30
2022-10-09T21:30:52.804Z,3.00
2022-10-09T21:33:21.334Z,3.00
2022-10-09T21:35:49.070Z,2.70
2022-10-09T21:38:17.550Z,2.80
2022-10-09T21:40:45.029Z,3.40
2022-10-09T21:43:12.234Z,2.70
2022-10-09T21:45:40.133Z,3.00
2022-10-09T22:21:52.830Z,3.40
2022-10-09T22:24:20.815Z,3.00
2022-10-09T22:26:48.037Z,3.93
2022-10-09T22:29:15.379Z,2.83
2022-10-09T22:31:42.565Z,3.23
2022-10-09T22:34:09.848Z,2.90
2022-10-09T22:36:37.035Z,3.50
2022-10-09T22:39:06.095Z,3.17
2022-10-09T22:41:36.504Z,3.40
2022-10-09T22:44:04.582Z,3.40
2022-10-09T22:46:33.871Z,3.10
2022-10-09T22:49:01.145Z,2.90
2022-10-09T22:51:29.300Z,3.03
2022-10-09T22:53:56.868Z,2.90
2022-10-09T22:56:27.039Z,3.33
2022-10-09T22:58:54.454Z,2.90
2022-10-09T23:01:23.778Z,3.00
2022-10-09T23:03:51.228Z,2.97
2022-10-09T23:06:19.930Z,3.50
2022-10-09T23:08:47.964Z,3.07
2022-10-09T23:11:15.979Z,3.40
2022-10-09T23:13:44.514Z,3.40
2022-10-09T23:16:12.394Z,3.90
2022-10-09T23:18:39.931Z,4.03
2022-10-09T23:21:08.021Z,3.13
2022-10-09T23:23:35.385Z,3.30
2022-10-09T23:26:06.006Z,3.83
2022-10-09T23:28:33.502Z,3.70
2022-10-09T23:31:04.070Z,3.53
2022-10-09T23:33:31.357Z,3.77
2022-10-09T23:35:58.574Z,3.27
2022-10-09T23:38:25.807Z,3.70
2022-10-09T23:40:56.431Z,3.20
2022-10-09T23:43:23.638Z,3.63
2022-10-09T23:45:50.842Z,4.63
2022-10-09T23:48:19.431Z,3.67
2022-10-09T23:50:48.488Z,3.37
2022-10-09T23:53:15.879Z,3.60
2022-10-09T23:55:43.283Z,2.80
2022-10-09T23:58:10.597Z,3.27
